createdAt,value
2023-04-09T00:03:29.938Z,43.10
2023-04-09T00:08:33.947Z,45.30
2023-04-09T00:13:39.602Z,45.80
2023-04-09T00:18:43.790Z,45.60
2023-04-09T00:23:47.483Z,46.30
2023-04-09T00:28:51.503Z,41.30
2023-04-09T00:33:55.857Z,42.10
2023-04-09T00:39:03.158Z,43.70
2023-04-09T00:44:06.980Z,44.80
2023-04-09T00:49:10.775Z,46.70
2023-04-09T00:54:14.885Z,46.50
2023-04-09T00:59:18.838Z,45.00
2023-04-09T01:04:23.637Z,44.40
2023-04-09T01:09:42.773Z,50.10
2023-04-09T01:14:57.750Z,48.40
2023-04-09T01:20:10.765Z,50.60
2023-04-09T01:25:34.452Z,53.10
2023-04-09T01:30:40.267Z,52.80
2023-04-09T01:35:46.754Z,51.00
2023-04-09T01:40:51.310Z,52.60
2023-04-09T01:45:55.579Z,52.00
2023-04-09T01:50:59.892Z,49.50
2023-04-09T01:56:04.043Z,49.00
2023-04-09T02:01:07.774Z,50.90
2023-04-09T02:06:17.940Z,49.60
2023-04-09T02:11:24.303Z,53.50
2023-04-09T02:16:28.734Z,50.00
2023-04-09T02:21:32.617Z,50.60
2023-04-09T02:26:36.346Z,55.60
2023-04-09T02:31:40.037Z,55.50
2023-04-09T02:36:44.090Z,58.40
2023-04-09T02:41:48.132Z,60.60
2023-04-09T02:46:52.982Z,63.10
2023-04-09T02:51:56.984Z,57.00
2023-04-09T02:57:01.595Z,55.50
2023-04-09T03:02:05.535Z,58.50
2023-04-09T03:07:09.558Z,59.10
2023-04-09T03:12:13.417Z,64.80
2023-04-09T03:17:17.133Z,57.00
2023-04-09T03:22:20.960Z,51.80
2023-04-09T03:27:27.587Z,60.10
2023-04-09T03:32:32.185Z,57.60
2023-04-09T03:37:36.680Z,59.30
2023-04-09T03:42:43.221Z,58.50
2023-04-09T03:47:47.936Z,57.80
2023-04-09T03:52:53.477Z,62.60
2023-04-09T03:57:57.436Z,55.70
2023-04-09T04:03:04.646Z,58.10
2023-04-09T04:08:24.748Z,58.90
2023-04-09T04:13:28.655Z,59.10
2023-04-09T04:18:34.165Z,54.30
2023-04-09T04:23:38.192Z,55.40
2023-04-09T04:28:53.459Z,54.80
2023-04-09T04:34:22.344Z,57.10
2023-04-09T04:39:32.658Z,54.80
2023-04-09T04:44:40.712Z,56.20
2023-04-09T04:50:04.596Z,58.10
2023-04-09T04:55:13.094Z,62.50
2023-04-09T05:00:19.283Z,62.60
2023-04-09T05:05:24.184Z,60.50
2023-04-09T05:10:31.355Z,63.20
2023-04-09T05:15:41.580Z,61.80
2023-04-09T05:20:46.498Z,60.90
2023-04-09T05:25:50.952Z,60.00
2023-04-09T05:31:03.298Z,58.70
2023-04-09T05:36:09.337Z,60.20
2023-04-09T05:41:13.451Z,58.00
2023-04-09T05:46:25.644Z,62.90
2023-04-09T05:51:29.444Z,55.40
2023-04-09T05:56:33.937Z,62.70
2023-04-09T06:01:38.393Z,63.70
2023-04-09T06:06:42.269Z,54.90
2023-04-09T06:11:46.127Z,58.90
2023-04-09T06:16:49.907Z,70.90
2023-04-09T06:21:53.642Z,60.90
2023-04-09T06:26:57.355Z,55.70
2023-04-09T06:32:01.417Z,70.50
2023-04-09T06:37:05.377Z,65.50
2023-04-09T06:42:09.129Z,67.20
2023-04-09T06:47:35.987Z,70.60
2023-04-09T06:52:39.990Z,69.00
2023-04-09T06:57:43.738Z,66.40
2023-04-09T07:02:47.688Z,66.20
2023-04-09T07:07:51.968Z,65.90
2023-04-09T07:12:55.678Z,62.60
2023-04-09T07:17:59.946Z,62.80
2023-04-09T07:23:03.643Z,67.70
2023-04-09T07:28:07.354Z,69.60
2023-04-09T07:33:11.177Z,67.40
2023-04-09T07:38:15.286Z,70.30
2023-04-09T07:43:20.177Z,78.30
2023-04-09T07:48:25.134Z,64.50
2023-04-09T07:53:28.914Z,65.60
2023-04-09T07:58:32.623Z,67.60
2023-04-09T08:03:37.370Z,64.30
2023-04-09T08:08:42.136Z,65.00
2023-04-09T08:13:45.875Z,65.70
2023-04-09T08:18:51.372Z,58.00
2023-04-09T08:23:59.921Z,63.10
2023-04-09T08:29:04.132Z,64.50
2023-04-09T08:34:08.256Z,62.00
2023-04-09T08:39:12.436Z,60.90
2023-04-09T08:44:17.082Z,54.00
2023-04-09T08:49:21.643Z,67.40
2023-04-09T08:54:27.295Z,60.70
2023-04-09T08:59:31.306Z,60.10
2023-04-09T09:04:46.926Z,53.10
2023-04-09T09:10:03.852Z,56.10
2023-04-09T09:15:28.856Z,54.30
2023-04-09T09:20:32.840Z,49.40
2023-04-09T09:25:43.630Z,47.80
2023-04-09T09:30:49.194Z,49.60
2023-04-09T09:35:54.934Z,48.50
2023-04-09T09:40:59.495Z,50.70
2023-04-09T09:46:03.586Z,44.70
2023-04-09T09:51:13.160Z,53.30
2023-04-09T09:56:20.036Z,49.20
2023-04-09T10:01:25.139Z,53.40
2023-04-09T10:06:29.091Z,49.20
2023-04-09T10:11:34.558Z,59.20
2023-04-09T10:16:38.488Z,55.50
2023-04-09T10:21:46.255Z,59.50
2023-04-09T10:26:54.861Z,53.10
2023-04-09T10:32:06.728Z,59.80
2023-04-09T10:37:15.274Z,56.30
2023-04-09T10:42:27.580Z,51.10
2023-04-09T10:47:36.598Z,57.30
2023-04-09T10:52:42.157Z,57.40
2023-04-09T10:57:46.090Z,49.40
2023-04-09T11:03:07.126Z,51.80
2023-04-09T11:08:12.868Z,50.80
2023-04-09T11:13:18.763Z,50.00
2023-04-09T11:18:27.554Z,53.30
2023-04-09T11:23:32.602Z,45.20
2023-04-09T11:28:36.294Z,43.40
2023-04-09T11:33:40.048Z,46.60
2023-04-09T11:38:43.701Z,47.30
2023-04-09T11:43:47.453Z,47.30
2023-04-09T11:48:51.811Z,54.30
2023-04-09T11:53:55.976Z,48.30
2023-04-09T11:58:59.881Z,53.90
2023-04-09T12:04:03.966Z,50.90
2023-04-09T12:09:09.304Z,55.10
2023-04-09T12:14:17.488Z,56.00
2023-04-09T12:19:21.614Z,54.60
2023-04-09T12:24:26.755Z,54.40
2023-04-09T12:29:31.083Z,43.90
2023-04-09T12:34:34.768Z,52.20
2023-04-09T12:39:38.503Z,51.70
2023-04-09T12:44:42.283Z,52.80
2023-04-09T12:49:47.187Z,55.70
2023-04-09T12:54:52.705Z,50.50
2023-04-09T12:59:56.451Z,55.30
2023-04-09T13:05:00.658Z,56.30
2023-04-09T13:10:05.024Z,54.80
2023-04-09T13:15:09.287Z,57.00
2023-04-09T13:20:13.225Z,60.00
2023-04-09T13:25:17.123Z,58.10
2023-04-09T13:30:22.926Z,58.80
2023-04-09T13:35:26.665Z,61.70
2023-04-09T13:40:30.440Z,58.70
2023-04-09T13:45:34.505Z,59.60
2023-04-09T13:50:38.372Z,59.00
2023-04-09T13:55:42.260Z,56.90
2023-04-09T14:00:45.984Z,60.80
2023-04-09T14:05:50.102Z,62.90
2023-04-09T14:10:53.818Z,66.70
2023-04-09T14:16:00.331Z,57.50
2023-04-09T14:21:04.550Z,55.70
2023-04-09T14:26:08.838Z,52.60
2023-04-09T14:31:13.514Z,55.60
2023-04-09T14:36:18.078Z,51.60
2023-04-09T14:41:21.994Z,53.20
2023-04-09T14:46:25.782Z,58.30
2023-04-09T14:51:31.065Z,53.40
2023-04-09T14:56:34.755Z,56.80
2023-04-09T15:01:38.566Z,58.30
2023-04-09T15:06:43.437Z,63.00
2023-04-09T15:11:47.882Z,54.30
2023-04-09T15:16:52.130Z,61.50
2023-04-09T15:21:56.722Z,59.70
2023-04-09T15:27:02.177Z,56.10
2023-04-09T15:32:07.796Z,58.90
2023-04-09T15:37:11.534Z,58.10
2023-04-09T15:42:20.551Z,60.90
2023-04-09T15:47:24.168Z,64.10
2023-04-09T15:52:27.983Z,63.20
2023-04-09T15:57:31.666Z,69.80
2023-04-09T16:02:37.196Z,66.90
2023-04-09T16:07:41.296Z,62.50
2023-04-09T16:12:45.031Z,67.80
2023-04-09T16:17:48.726Z,67.20
2023-04-09T16:22:52.565Z,63.10
2023-04-09T16:27:56.425Z,67.40
2023-04-09T16:33:00.309Z,63.50
2023-04-09T16:38:05.323Z,64.90
2023-04-09T16:43:09.086Z,61.10
2023-04-09T16:48:13.843Z,68.30
2023-04-09T16:53:17.808Z,64.40
2023-04-09T16:58:21.573Z,62.20
2023-04-09T17:03:26.743Z,58.90
2023-04-09T17:08:30.924Z,63.50
2023-04-09T17:13:36.562Z,59.10
2023-04-09T17:18:40.351Z,60.40
2023-04-09T17:23:44.619Z,57.50
2023-04-09T17:28:48.366Z,66.40
2023-04-09T17:33:52.351Z,61.10
2023-04-09T17:38:56.898Z,57.40
2023-04-09T17:44:00.646Z,58.70
2023-04-09T17:49:04.755Z,56.10
2023-04-09T17:54:08.496Z,59.50
2023-04-09T17:59:12.484Z,57.50
2023-04-09T18:04:16.836Z,61.20
2023-04-09T18:09:21.032Z,63.00
2023-04-09T18:14:25.262Z,67.00
2023-04-09T18:19:29.015Z,65.50
2023-04-09T18:24:34.219Z,64.60
2023-04-09T18:29:38.009Z,61.90
2023-04-09T18:34:41.816Z,55.10
2023-04-09T18:39:47.303Z,63.20
2023-04-09T18:44:51.293Z,63.30
2023-04-09T18:49:56.354Z,73.40
2023-04-09T18:55:01.870Z,65.80
2023-04-09T19:00:08.257Z,69.90
2023-04-09T19:05:13.321Z,59.80
2023-04-09T19:10:17.788Z,57.10
2023-04-09T19:15:29.318Z,66.10
2023-04-09T19:20:35.431Z,69.60
2023-04-09T19:25:39.572Z,73.40
2023-04-09T19:30:44.887Z,69.40
2023-04-09T19:35:53.064Z,69.40
2023-04-09T19:40:57.231Z,75.00
2023-04-09T19:46:06.884Z,70.30
2023-04-09T19:51:17.894Z,73.70
2023-04-09T19:56:22.162Z,67.70
2023-04-09T20:01:26.203Z,64.30
2023-04-09T20:06:31.205Z,61.00
2023-04-09T20:11:35.727Z,69.20
2023-04-09T20:16:39.420Z,82.10
2023-04-09T20:21:44.090Z,74.60
2023-04-09T20:26:49.017Z,65.90
2023-04-09T20:31:56.170Z,68.80
2023-04-09T20:37:08.729Z,71.40
2023-04-09T20:42:12.574Z,73.50
2023-04-09T20:47:17.251Z,73.50
2023-04-09T20:52:21.077Z,74.20
2023-04-09T20:57:25.348Z,68.00
2023-04-09T21:02:29.469Z,69.80
2023-04-09T21:07:33.372Z,63.10
2023-04-09T21:12:40.888Z,68.80
2023-04-09T21:17:48.342Z,62.00
2023-04-09T21:22:54.900Z,72.20
2023-04-09T21:28:03.790Z,71.40
2023-04-09T21:33:11.617Z,64.70
2023-04-09T21:38:18.444Z,71.80
2023-04-09T21:43:24.124Z,64.20
2023-04-09T21:48:30.959Z,69.20
2023-04-09T21:53:38.662Z,79.50
2023-04-09T21:58:47.396Z,71.50
2023-04-09T22:03:52.453Z,73.70
2023-04-09T22:08:58.215Z,83.30
2023-04-09T22:14:02.491Z,79.70
2023-04-09T22:19:09.062Z,79.90
2023-04-09T22:24:14.627Z,73.90
2023-04-09T22:29:18.396Z,75.60
2023-04-09T22:34:22.351Z,76.40
2023-04-09T22:39:27.050Z,131.60
2023-04-09T22:44:30.982Z,97.80
2023-04-09T22:49:34.774Z,107.70
2023-04-09T22:54:38.888Z,279.50
2023-04-09T22:59:42.645Z,99.80
2023-04-09T23:04:46.494Z,846.40
2023-04-09T23:09:50.353Z,808.90
2023-04-09T23:14:55.063Z,556.20
2023-04-09T23:19:59.946Z,303.00
2023-04-09T23:25:05.353Z,234.60
2023-04-09T23:30:09.853Z,463.00
2023-04-09T23:35:13.910Z,248.70
2023-04-09T23:40:20.290Z,381.20
2023-04-09T23:45:24.047Z,447.60
2023-04-09T23:50:29.060Z,169.10
2023-04-09T23:55:33.777Z,80.30
